sensor_id;sensor_type;location;lat;lon;timestamp;P1;durP1;ratioP1;P2;durP2;ratioP2
77518;SDS011;66629;47.346;19.038;2023-04-30T00:02:11;10.45;;;7.38;;
77518;SDS011;66629;47.346;19.038;2023-04-30T00:04:36;10.75;;;7.50;;
77518;SDS011;66629;47.346;19.038;2023-04-30T00:07:02;13.55;;;7.50;;
77518;SDS011;66629;47.346;19.038;2023-04-30T00:09:27;11.02;;;7.25;;
77518;SDS011;66629;47.346;19.038;2023-04-30T00:11:53;11.48;;;7.28;;
77518;SDS011;66629;47.346;19.038;2023-04-30T00:14:18;11.15;;;6.45;;
77518;SDS011;66629;47.346;19.038;2023-04-30T00:16:44;11.35;;;7.47;;
77518;SDS011;66629;47.346;19.038;2023-04-30T00:19:09;9.75;;;7.07;;
77518;SDS011;66629;47.346;19.038;2023-04-30T00:21:35;9.57;;;7.32;;
77518;SDS011;66629;47.346;19.038;2023-04-30T00:24:00;10.43;;;6.95;;
77518;SDS011;66629;47.346;19.038;2023-04-30T00:26:26;9.50;;;6.72;;
77518;SDS011;66629;47.346;19.038;2023-04-30T00:28:52;11.40;;;7.43;;
77518;SDS011;66629;47.346;19.038;2023-04-30T00:31:17;10.60;;;6.40;;
77518;SDS011;66629;47.346;19.038;2023-04-30T00:33:43;9.23;;;6.85;;
77518;SDS011;66629;47.346;19.038;2023-04-30T00:36:08;8.43;;;6.10;;
77518;SDS011;66629;47.346;19.038;2023-04-30T00:38:34;10.52;;;6.65;;
77518;SDS011;66629;47.346;19.038;2023-04-30T00:40:59;8.93;;;6.53;;
77518;SDS011;66629;47.346;19.038;2023-04-30T00:43:25;10.40;;;7.05;;
77518;SDS011;66629;47.346;19.038;2023-04-30T00:45:50;9.85;;;6.90;;
77518;SDS011;66629;47.346;19.038;2023-04-30T00:48:16;10.38;;;7.03;;
77518;SDS011;66629;47.346;19.038;2023-04-30T00:50:42;10.60;;;6.40;;
77518;SDS011;66629;47.346;19.038;2023-04-30T00:53:09;8.65;;;6.43;;
77518;SDS011;66629;47.346;19.038;2023-04-30T00:55:35;8.27;;;6.82;;
77518;SDS011;66629;47.346;19.038;2023-04-30T00:58:01;7.45;;;6.65;;
77518;SDS011;66629;47.346;19.038;2023-04-30T01:00:27;9.18;;;6.82;;
77518;SDS011;66629;47.346;19.038;2023-04-30T01:02:52;10.35;;;6.95;;
77518;SDS011;66629;47.346;19.038;2023-04-30T01:05:19;9.02;;;6.85;;
77518;SDS011;66629;47.346;19.038;2023-04-30T01:07:46;9.02;;;6.90;;
77518;SDS011;66629;47.346;19.038;2023-04-30T01:10:13;13.55;;;7.38;;
77518;SDS011;66629;47.346;19.038;2023-04-30T01:12:49;9.90;;;6.75;;
77518;SDS011;66629;47.346;19.038;2023-04-30T01:15:30;8.65;;;7.25;;
77518;SDS011;66629;47.346;19.038;2023-04-30T01:18:08;9.15;;;7.05;;
77518;SDS011;66629;47.346;19.038;2023-04-30T01:20:43;10.07;;;7.43;;
77518;SDS011;66629;47.346;19.038;2023-04-30T01:26:12;10.23;;;7.00;;
77518;SDS011;66629;47.346;19.038;2023-04-30T01:28:43;9.43;;;7.50;;
77518;SDS011;66629;47.346;19.038;2023-04-30T01:31:13;11.00;;;7.80;;
77518;SDS011;66629;47.346;19.038;2023-04-30T01:33:40;13.23;;;7.90;;
77518;SDS011;66629;47.346;19.038;2023-04-30T01:36:12;11.25;;;8.10;;
77518;SDS011;66629;47.346;19.038;2023-04-30T01:41:39;11.68;;;8.40;;
77518;SDS011;66629;47.346;19.038;2023-04-30T01:47:52;11.73;;;8.32;;
77518;SDS011;66629;47.346;19.038;2023-04-30T01:52:53;12.43;;;8.13;;
77518;SDS011;66629;47.346;19.038;2023-04-30T01:58:10;11.90;;;8.27;;
77518;SDS011;66629;47.346;19.038;2023-04-30T02:00:37;12.30;;;8.90;;
77518;SDS011;66629;47.346;19.038;2023-04-30T02:03:03;11.10;;;8.27;;
77518;SDS011;66629;47.346;19.038;2023-04-30T02:05:28;12.93;;;8.95;;
77518;SDS011;66629;47.346;19.038;2023-04-30T02:07:54;12.02;;;8.68;;
77518;SDS011;66629;47.346;19.038;2023-04-30T02:10:23;13.27;;;8.82;;
77518;SDS011;66629;47.346;19.038;2023-04-30T02:12:49;11.70;;;8.77;;
77518;SDS011;66629;47.346;19.038;2023-04-30T02:15:15;14.45;;;9.38;;
77518;SDS011;66629;47.346;19.038;2023-04-30T02:17:41;12.02;;;9.02;;
77518;SDS011;66629;47.346;19.038;2023-04-30T02:20:07;13.05;;;9.50;;
77518;SDS011;66629;47.346;19.038;2023-04-30T02:22:33;10.48;;;8.30;;
77518;SDS011;66629;47.346;19.038;2023-04-30T02:24:59;13.23;;;9.13;;
77518;SDS011;66629;47.346;19.038;2023-04-30T02:27:24;12.30;;;8.88;;
77518;SDS011;66629;47.346;19.038;2023-04-30T02:29:50;13.18;;;9.73;;
77518;SDS011;66629;47.346;19.038;2023-04-30T02:32:17;11.98;;;8.52;;
77518;SDS011;66629;47.346;19.038;2023-04-30T02:34:42;9.95;;;8.40;;
77518;SDS011;66629;47.346;19.038;2023-04-30T02:37:08;15.15;;;9.02;;
77518;SDS011;66629;47.346;19.038;2023-04-30T02:39:33;13.95;;;9.25;;
77518;SDS011;66629;47.346;19.038;2023-04-30T02:41:59;13.63;;;8.90;;
77518;SDS011;66629;47.346;19.038;2023-04-30T02:44:25;10.45;;;8.48;;
77518;SDS011;66629;47.346;19.038;2023-04-30T02:46:50;10.32;;;8.50;;
77518;SDS011;66629;47.346;19.038;2023-04-30T02:49:16;10.45;;;8.70;;
77518;SDS011;66629;47.346;19.038;2023-04-30T02:51:42;10.88;;;8.38;;
77518;SDS011;66629;47.346;19.038;2023-04-30T02:54:07;11.82;;;8.85;;
77518;SDS011;66629;47.346;19.038;2023-04-30T02:56:33;13.43;;;8.82;;
77518;SDS011;66629;47.346;19.038;2023-04-30T02:58:59;12.60;;;8.80;;
77518;SDS011;66629;47.346;19.038;2023-04-30T03:01:24;13.32;;;9.35;;
77518;SDS011;66629;47.346;19.038;2023-04-30T03:03:50;12.35;;;9.20;;
77518;SDS011;66629;47.346;19.038;2023-04-30T03:06:16;11.90;;;8.20;;
77518;SDS011;66629;47.346;19.038;2023-04-30T03:08:41;12.68;;;8.05;;
77518;SDS011;66629;47.346;19.038;2023-04-30T03:11:07;12.55;;;7.95;;
77518;SDS011;66629;47.346;19.038;2023-04-30T03:13:32;10.32;;;7.90;;
77518;SDS011;66629;47.346;19.038;2023-04-30T03:15:58;11.98;;;7.72;;
77518;SDS011;66629;47.346;19.038;2023-04-30T03:18:30;11.38;;;7.72;;
77518;SDS011;66629;47.346;19.038;2023-04-30T03:20:56;12.60;;;7.95;;
77518;SDS011;66629;47.346;19.038;2023-04-30T03:23:22;9.68;;;7.65;;
77518;SDS011;66629;47.346;19.038;2023-04-30T03:25:48;10.45;;;7.57;;
77518;SDS011;66629;47.346;19.038;2023-04-30T03:28:13;12.85;;;7.97;;
77518;SDS011;66629;47.346;19.038;2023-04-30T03:30:39;10.27;;;7.63;;
77518;SDS011;66629;47.346;19.038;2023-04-30T03:33:05;10.57;;;7.38;;
77518;SDS011;66629;47.346;19.038;2023-04-30T03:35:31;10.40;;;7.38;;
77518;SDS011;66629;47.346;19.038;2023-04-30T03:37:57;15.07;;;8.55;;
77518;SDS011;66629;47.346;19.038;2023-04-30T03:40:23;9.88;;;7.78;;
77518;SDS011;66629;47.346;19.038;2023-04-30T03:42:49;11.93;;;8.35;;
77518;SDS011;66629;47.346;19.038;2023-04-30T03:45:14;10.25;;;7.82;;
77518;SDS011;66629;47.346;19.038;2023-04-30T03:47:39;9.27;;;7.47;;
77518;SDS011;66629;47.346;19.038;2023-04-30T03:50:07;11.35;;;8.05;;
77518;SDS011;66629;47.346;19.038;2023-04-30T03:52:33;11.95;;;7.72;;
77518;SDS011;66629;47.346;19.038;2023-04-30T03:55:00;9.77;;;7.50;;
77518;SDS011;66629;47.346;19.038;2023-04-30T03:57:26;10.85;;;7.82;;
77518;SDS011;66629;47.346;19.038;2023-04-30T03:59:51;10.45;;;7.32;;
77518;SDS011;66629;47.346;19.038;2023-04-30T04:02:17;10.48;;;7.82;;
77518;SDS011;66629;47.346;19.038;2023-04-30T04:04:43;11.73;;;7.53;;
77518;SDS011;66629;47.346;19.038;2023-04-30T04:07:08;9.48;;;7.53;;
77518;SDS011;66629;47.346;19.038;2023-04-30T04:09:35;9.70;;;7.78;;
77518;SDS011;66629;47.346;19.038;2023-04-30T04:12:01;12.80;;;8.13;;
77518;SDS011;66629;47.346;19.038;2023-04-30T04:14:26;11.32;;;8.35;;
77518;SDS011;66629;47.346;19.038;2023-04-30T04:16:52;11.55;;;8.68;;
77518;SDS011;66629;47.346;19.038;2023-04-30T04:19:18;11.55;;;8.65;;
77518;SDS011;66629;47.346;19.038;2023-04-30T04:21:43;11.45;;;8.18;;
77518;SDS011;66629;47.346;19.038;2023-04-30T04:24:09;12.82;;;9.40;;
77518;SDS011;66629;47.346;19.038;2023-04-30T04:26:35;11.05;;;8.38;;
77518;SDS011;66629;47.346;19.038;2023-04-30T04:29:01;13.60;;;9.57;;
77518;SDS011;66629;47.346;19.038;2023-04-30T04:31:32;11.60;;;9.10;;
77518;SDS011;66629;47.346;19.038;2023-04-30T04:33:58;10.98;;;8.98;;
77518;SDS011;66629;47.346;19.038;2023-04-30T04:36:25;15.63;;;11.32;;
77518;SDS011;66629;47.346;19.038;2023-04-30T04:38:52;14.25;;;11.32;;
77518;SDS011;66629;47.346;19.038;2023-04-30T04:41:17;16.65;;;12.77;;
77518;SDS011;66629;47.346;19.038;2023-04-30T04:43:43;22.23;;;14.82;;
77518;SDS011;66629;47.346;19.038;2023-04-30T04:46:09;19.65;;;13.95;;
77518;SDS011;66629;47.346;19.038;2023-04-30T04:48:35;20.02;;;12.32;;
77518;SDS011;66629;47.346;19.038;2023-04-30T04:51:00;16.77;;;13.13;;
77518;SDS011;66629;47.346;19.038;2023-04-30T04:53:26;16.73;;;13.02;;
77518;SDS011;66629;47.346;19.038;2023-04-30T04:55:51;16.38;;;13.32;;
77518;SDS011;66629;47.346;19.038;2023-04-30T04:58:16;14.15;;;12.55;;
77518;SDS011;66629;47.346;19.038;2023-04-30T05:00:42;18.55;;;14.27;;
77518;SDS011;66629;47.346;19.038;2023-04-30T05:03:09;15.43;;;12.38;;
77518;SDS011;66629;47.346;19.038;2023-04-30T05:05:34;17.23;;;12.88;;
77518;SDS011;66629;47.346;19.038;2023-04-30T05:08:00;16.25;;;13.20;;
77518;SDS011;66629;47.346;19.038;2023-04-30T05:10:25;18.05;;;13.45;;
77518;SDS011;66629;47.346;19.038;2023-04-30T05:12:50;16.48;;;12.70;;
77518;SDS011;66629;47.346;19.038;2023-04-30T05:15:16;15.75;;;12.95;;
77518;SDS011;66629;47.346;19.038;2023-04-30T05:17:41;14.90;;;12.50;;
77518;SDS011;66629;47.346;19.038;2023-04-30T05:20:07;19.33;;;12.80;;
77518;SDS011;66629;47.346;19.038;2023-04-30T05:22:33;18.35;;;14.07;;
77518;SDS011;66629;47.346;19.038;2023-04-30T05:24:59;19.20;;;13.73;;
77518;SDS011;66629;47.346;19.038;2023-04-30T05:27:24;18.27;;;13.02;;
77518;SDS011;66629;47.346;19.038;2023-04-30T05:29:51;16.60;;;12.13;;
77518;SDS011;66629;47.346;19.038;2023-04-30T05:32:16;14.27;;;12.40;;
77518;SDS011;66629;47.346;19.038;2023-04-30T05:34:41;17.05;;;12.15;;
77518;SDS011;66629;47.346;19.038;2023-04-30T05:37:07;12.95;;;10.38;;
77518;SDS011;66629;47.346;19.038;2023-04-30T05:39:32;15.75;;;12.15;;
77518;SDS011;66629;47.346;19.038;2023-04-30T05:41:59;14.02;;;11.88;;
77518;SDS011;66629;47.346;19.038;2023-04-30T05:44:26;12.88;;;11.07;;
77518;SDS011;66629;47.346;19.038;2023-04-30T05:46:54;13.20;;;10.70;;
77518;SDS011;66629;47.346;19.038;2023-04-30T05:49:20;13.88;;;10.80;;
77518;SDS011;66629;47.346;19.038;2023-04-30T05:51:45;11.05;;;9.63;;
77518;SDS011;66629;47.346;19.038;2023-04-30T05:54:10;11.77;;;10.57;;
77518;SDS011;66629;47.346;19.038;2023-04-30T05:56:36;11.13;;;9.45;;
77518;SDS011;66629;47.346;19.038;2023-04-30T05:59:01;9.52;;;8.18;;
77518;SDS011;66629;47.346;19.038;2023-04-30T06:01:27;12.50;;;10.25;;
77518;SDS011;66629;47.346;19.038;2023-04-30T06:03:53;12.23;;;9.75;;
77518;SDS011;66629;47.346;19.038;2023-04-30T06:06:19;11.10;;;9.30;;
77518;SDS011;66629;47.346;19.038;2023-04-30T06:08:44;10.93;;;8.40;;
77518;SDS011;66629;47.346;19.038;2023-04-30T06:11:10;9.63;;;8.05;;
77518;SDS011;66629;47.346;19.038;2023-04-30T06:13:37;11.00;;;8.40;;
77518;SDS011;66629;47.346;19.038;2023-04-30T06:16:03;9.75;;;7.57;;
77518;SDS011;66629;47.346;19.038;2023-04-30T06:18:29;10.80;;;8.80;;
77518;SDS011;66629;47.346;19.038;2023-04-30T06:20:55;9.98;;;7.57;;
77518;SDS011;66629;47.346;19.038;2023-04-30T06:23:20;9.80;;;7.20;;
77518;SDS011;66629;47.346;19.038;2023-04-30T06:25:46;9.25;;;7.45;;
77518;SDS011;66629;47.346;19.038;2023-04-30T06:28:11;9.60;;;7.45;;
77518;SDS011;66629;47.346;19.038;2023-04-30T06:30:37;9.57;;;7.93;;
77518;SDS011;66629;47.346;19.038;2023-04-30T06:33:02;10.00;;;7.97;;
77518;SDS011;66629;47.346;19.038;2023-04-30T06:35:27;10.65;;;8.25;;
77518;SDS011;66629;47.346;19.038;2023-04-30T06:37:53;10.68;;;8.73;;
77518;SDS011;66629;47.346;19.038;2023-04-30T06:40:18;8.65;;;7.60;;
77518;SDS011;66629;47.346;19.038;2023-04-30T06:42:44;9.68;;;7.82;;
77518;SDS011;66629;47.346;19.038;2023-04-30T06:45:10;8.68;;;7.57;;
77518;SDS011;66629;47.346;19.038;2023-04-30T06:47:36;9.00;;;7.47;;
77518;SDS011;66629;47.346;19.038;2023-04-30T06:50:02;11.40;;;7.32;;
77518;SDS011;66629;47.346;19.038;2023-04-30T06:52:29;8.18;;;7.10;;
77518;SDS011;66629;47.346;19.038;2023-04-30T06:54:55;9.15;;;7.57;;
77518;SDS011;66629;47.346;19.038;2023-04-30T06:57:20;7.95;;;7.10;;
77518;SDS011;66629;47.346;19.038;2023-04-30T06:59:46;8.07;;;6.72;;
77518;SDS011;66629;47.346;19.038;2023-04-30T07:02:12;7.65;;;6.03;;
77518;SDS011;66629;47.346;19.038;2023-04-30T07:04:38;8.77;;;7.30;;
77518;SDS011;66629;47.346;19.038;2023-04-30T07:07:03;8.93;;;7.10;;
77518;SDS011;66629;47.346;19.038;2023-04-30T07:09:29;6.97;;;5.47;;
77518;SDS011;66629;47.346;19.038;2023-04-30T07:11:55;7.57;;;6.28;;
77518;SDS011;66629;47.346;19.038;2023-04-30T07:14:22;7.75;;;6.20;;
77518;SDS011;66629;47.346;19.038;2023-04-30T07:16:51;8.05;;;6.32;;
77518;SDS011;66629;47.346;19.038;2023-04-30T07:19:17;8.82;;;6.47;;
77518;SDS011;66629;47.346;19.038;2023-04-30T07:21:43;7.78;;;6.18;;
77518;SDS011;66629;47.346;19.038;2023-04-30T07:24:08;8.75;;;6.60;;
77518;SDS011;66629;47.346;19.038;2023-04-30T07:26:34;7.88;;;6.00;;
77518;SDS011;66629;47.346;19.038;2023-04-30T07:29:00;6.80;;;6.10;;
77518;SDS011;66629;47.346;19.038;2023-04-30T07:31:26;7.57;;;5.43;;
77518;SDS011;66629;47.346;19.038;2023-04-30T07:33:51;6.57;;;5.40;;
77518;SDS011;66629;47.346;19.038;2023-04-30T07:36:19;7.10;;;6.00;;
77518;SDS011;66629;47.346;19.038;2023-04-30T07:38:44;6.63;;;5.65;;
77518;SDS011;66629;47.346;19.038;2023-04-30T07:41:10;6.82;;;5.60;;
77518;SDS011;66629;47.346;19.038;2023-04-30T07:43:35;7.13;;;4.90;;
77518;SDS011;66629;47.346;19.038;2023-04-30T07:46:01;7.85;;;5.18;;
77518;SDS011;66629;47.346;19.038;2023-04-30T07:48:27;7.18;;;5.60;;
77518;SDS011;66629;47.346;19.038;2023-04-30T07:50:53;7.53;;;4.80;;
77518;SDS011;66629;47.346;19.038;2023-04-30T07:53:19;7.82;;;5.28;;
77518;SDS011;66629;47.346;19.038;2023-04-30T07:55:44;5.50;;;4.38;;
77518;SDS011;66629;47.346;19.038;2023-04-30T07:58:10;5.75;;;4.82;;
77518;SDS011;66629;47.346;19.038;2023-04-30T08:00:36;5.53;;;4.57;;
77518;SDS011;66629;47.346;19.038;2023-04-30T08:03:01;5.22;;;3.75;;
77518;SDS011;66629;47.346;19.038;2023-04-30T08:05:27;3.95;;;3.35;;
77518;SDS011;66629;47.346;19.038;2023-04-30T08:07:52;9.45;;;3.92;;
77518;SDS011;66629;47.346;19.038;2023-04-30T08:10:18;6.07;;;2.80;;
77518;SDS011;66629;47.346;19.038;2023-04-30T08:12:43;3.47;;;2.95;;
77518;SDS011;66629;47.346;19.038;2023-04-30T08:15:09;4.00;;;3.00;;
77518;SDS011;66629;47.346;19.038;2023-04-30T08:17:35;4.07;;;2.80;;
77518;SDS011;66629;47.346;19.038;2023-04-30T08:20:01;5.18;;;3.05;;
77518;SDS011;66629;47.346;19.038;2023-04-30T08:22:28;3.80;;;2.50;;
77518;SDS011;66629;47.346;19.038;2023-04-30T08:24:54;3.72;;;2.70;;
77518;SDS011;66629;47.346;19.038;2023-04-30T08:27:20;7.13;;;2.40;;
77518;SDS011;66629;47.346;19.038;2023-04-30T08:29:46;3.80;;;3.00;;
77518;SDS011;66629;47.346;19.038;2023-04-30T08:32:11;5.00;;;3.65;;
77518;SDS011;66629;47.346;19.038;2023-04-30T08:34:37;5.20;;;3.75;;
77518;SDS011;66629;47.346;19.038;2023-04-30T08:37:04;5.35;;;3.50;;
77518;SDS011;66629;47.346;19.038;2023-04-30T08:39:30;4.32;;;3.15;;
77518;SDS011;66629;47.346;19.038;2023-04-30T08:41:56;3.40;;;2.75;;
77518;SDS011;66629;47.346;19.038;2023-04-30T08:44:26;5.10;;;2.45;;
77518;SDS011;66629;47.346;19.038;2023-04-30T08:46:53;4.10;;;2.83;;
77518;SDS011;66629;47.346;19.038;2023-04-30T08:49:23;3.65;;;2.40;;
77518;SDS011;66629;47.346;19.038;2023-04-30T08:51:49;3.20;;;2.70;;
77518;SDS011;66629;47.346;19.038;2023-04-30T08:54:15;3.13;;;2.30;;
77518;SDS011;66629;47.346;19.038;2023-04-30T08:56:42;4.47;;;2.10;;
77518;SDS011;66629;47.346;19.038;2023-04-30T08:59:09;3.17;;;2.40;;
77518;SDS011;66629;47.346;19.038;2023-04-30T09:01:36;2.33;;;2.03;;
77518;SDS011;66629;47.346;19.038;2023-04-30T09:04:02;2.63;;;1.85;;
77518;SDS011;66629;47.346;19.038;2023-04-30T09:06:28;2.40;;;2.03;;
77518;SDS011;66629;47.346;19.038;2023-04-30T09:08:54;2.47;;;1.80;;
77518;SDS011;66629;47.346;19.038;2023-04-30T09:13:46;2.85;;;1.90;;
77518;SDS011;66629;47.346;19.038;2023-04-30T09:16:12;2.17;;;1.90;;
77518;SDS011;66629;47.346;19.038;2023-04-30T09:18:38;2.30;;;1.75;;
77518;SDS011;66629;47.346;19.038;2023-04-30T09:21:04;2.22;;;1.85;;
77518;SDS011;66629;47.346;19.038;2023-04-30T09:23:32;2.53;;;2.08;;
77518;SDS011;66629;47.346;19.038;2023-04-30T09:25:57;2.28;;;2.00;;
77518;SDS011;66629;47.346;19.038;2023-04-30T09:28:23;2.40;;;1.50;;
77518;SDS011;66629;47.346;19.038;2023-04-30T09:30:50;1.95;;;1.73;;
77518;SDS011;66629;47.346;19.038;2023-04-30T09:33:16;2.85;;;1.55;;
77518;SDS011;66629;47.346;19.038;2023-04-30T09:35:42;2.05;;;1.58;;
77518;SDS011;66629;47.346;19.038;2023-04-30T09:38:24;2.00;;;1.80;;
77518;SDS011;66629;47.346;19.038;2023-04-30T09:40:51;3.35;;;1.65;;
77518;SDS011;66629;47.346;19.038;2023-04-30T09:43:16;2.72;;;1.80;;
77518;SDS011;66629;47.346;19.038;2023-04-30T09:45:42;2.97;;;1.80;;
77518;SDS011;66629;47.346;19.038;2023-04-30T09:48:11;2.60;;;2.00;;
77518;SDS011;66629;47.346;19.038;2023-04-30T09:50:40;1.73;;;1.60;;
77518;SDS011;66629;47.346;19.038;2023-04-30T09:53:06;3.45;;;2.20;;
77518;SDS011;66629;47.346;19.038;2023-04-30T09:55:33;2.47;;;1.95;;
77518;SDS011;66629;47.346;19.038;2023-04-30T09:58:02;2.22;;;1.90;;
77518;SDS011;66629;47.346;19.038;2023-04-30T10:00:30;2.58;;;1.80;;
77518;SDS011;66629;47.346;19.038;2023-04-30T10:03:04;3.05;;;2.08;;
77518;SDS011;66629;47.346;19.038;2023-04-30T10:05:44;1.88;;;1.77;;
77518;SDS011;66629;47.346;19.038;2023-04-30T10:08:27;2.50;;;1.83;;
77518;SDS011;66629;47.346;19.038;2023-04-30T10:11:03;1.90;;;1.70;;
77518;SDS011;66629;47.346;19.038;2023-04-30T10:13:30;1.88;;;1.70;;
77518;SDS011;66629;47.346;19.038;2023-04-30T10:16:01;3.03;;;2.13;;
77518;SDS011;66629;47.346;19.038;2023-04-30T10:18:32;2.10;;;1.90;;
77518;SDS011;66629;47.346;19.038;2023-04-30T10:21:02;2.75;;;2.08;;
77518;SDS011;66629;47.346;19.038;2023-04-30T10:23:28;6.80;;;3.50;;
77518;SDS011;66629;47.346;19.038;2023-04-30T10:25:55;3.88;;;3.00;;
77518;SDS011;66629;47.346;19.038;2023-04-30T10:28:24;2.15;;;1.80;;
77518;SDS011;66629;47.346;19.038;2023-04-30T10:30:51;2.35;;;1.80;;
77518;SDS011;66629;47.346;19.038;2023-04-30T10:33:18;3.80;;;1.65;;
77518;SDS011;66629;47.346;19.038;2023-04-30T10:35:58;4.70;;;1.90;;
77518;SDS011;66629;47.346;19.038;2023-04-30T10:38:26;3.13;;;1.67;;
77518;SDS011;66629;47.346;19.038;2023-04-30T10:41:00;3.08;;;2.03;;
77518;SDS011;66629;47.346;19.038;2023-04-30T10:43:28;2.90;;;1.90;;
77518;SDS011;66629;47.346;19.038;2023-04-30T10:45:55;2.33;;;1.85;;
77518;SDS011;66629;47.346;19.038;2023-04-30T10:48:22;3.00;;;2.00;;
77518;SDS011;66629;47.346;19.038;2023-04-30T10:50:56;2.85;;;2.00;;
77518;SDS011;66629;47.346;19.038;2023-04-30T10:53:23;3.35;;;2.40;;
77518;SDS011;66629;47.346;19.038;2023-04-30T10:55:57;2.13;;;1.75;;
77518;SDS011;66629;47.346;19.038;2023-04-30T10:58:31;2.20;;;2.00;;
77518;SDS011;66629;47.346;19.038;2023-04-30T11:01:13;4.00;;;1.92;;
77518;SDS011;66629;47.346;19.038;2023-04-30T11:03:42;2.22;;;2.00;;
77518;SDS011;66629;47.346;19.038;2023-04-30T11:06:28;4.20;;;2.20;;
77518;SDS011;66629;47.346;19.038;2023-04-30T11:09:13;2.80;;;2.00;;
77518;SDS011;66629;47.346;19.038;2023-04-30T11:11:39;3.95;;;2.03;;
77518;SDS011;66629;47.346;19.038;2023-04-30T11:14:05;2.30;;;1.88;;
77518;SDS011;66629;47.346;19.038;2023-04-30T11:16:33;2.28;;;1.90;;
77518;SDS011;66629;47.346;19.038;2023-04-30T11:19:05;7.30;;;4.50;;
77518;SDS011;66629;47.346;19.038;2023-04-30T11:29:56;3.42;;;2.50;;
77518;SDS011;66629;47.346;19.038;2023-04-30T11:32:23;1.88;;;1.70;;
77518;SDS011;66629;47.346;19.038;2023-04-30T11:34:50;1.83;;;1.70;;
77518;SDS011;66629;47.346;19.038;2023-04-30T11:37:19;2.58;;;1.95;;
77518;SDS011;66629;47.346;19.038;2023-04-30T11:39:46;5.18;;;3.50;;
77518;SDS011;66629;47.346;19.038;2023-04-30T11:42:18;6.32;;;3.90;;
77518;SDS011;66629;47.346;19.038;2023-04-30T11:44:44;4.15;;;1.80;;
77518;SDS011;66629;47.346;19.038;2023-04-30T11:47:09;3.33;;;1.80;;
77518;SDS011;66629;47.346;19.038;2023-04-30T11:49:37;2.38;;;1.63;;
77518;SDS011;66629;47.346;19.038;2023-04-30T11:52:02;2.00;;;1.77;;
77518;SDS011;66629;47.346;19.038;2023-04-30T11:54:31;2.65;;;1.95;;
77518;SDS011;66629;47.346;19.038;2023-04-30T11:56:57;1.83;;;1.50;;
77518;SDS011;66629;47.346;19.038;2023-04-30T11:59:27;2.15;;;1.88;;
77518;SDS011;66629;47.346;19.038;2023-04-30T12:01:53;5.32;;;1.70;;
77518;SDS011;66629;47.346;19.038;2023-04-30T12:04:18;2.38;;;1.70;;
77518;SDS011;66629;47.346;19.038;2023-04-30T12:06:44;2.28;;;1.63;;
77518;SDS011;66629;47.346;19.038;2023-04-30T12:09:09;2.33;;;1.80;;
77518;SDS011;66629;47.346;19.038;2023-04-30T12:11:36;1.98;;;1.60;;
77518;SDS011;66629;47.346;19.038;2023-04-30T12:14:03;1.70;;;1.60;;
77518;SDS011;66629;47.346;19.038;2023-04-30T12:16:47;2.30;;;1.60;;
77518;SDS011;66629;47.346;19.038;2023-04-30T12:19:15;2.20;;;1.67;;
77518;SDS011;66629;47.346;19.038;2023-04-30T12:21:45;1.60;;;1.42;;
77518;SDS011;66629;47.346;19.038;2023-04-30T12:24:12;1.67;;;1.50;;
77518;SDS011;66629;47.346;19.038;2023-04-30T12:26:39;1.70;;;1.60;;
77518;SDS011;66629;47.346;19.038;2023-04-30T12:29:09;1.83;;;1.50;;
77518;SDS011;66629;47.346;19.038;2023-04-30T12:31:36;1.90;;;1.67;;
77518;SDS011;66629;47.346;19.038;2023-04-30T12:34:03;2.15;;;1.63;;
77518;SDS011;66629;47.346;19.038;2023-04-30T12:36:30;3.22;;;1.38;;
77518;SDS011;66629;47.346;19.038;2023-04-30T12:39:00;1.67;;;1.45;;
77518;SDS011;66629;47.346;19.038;2023-04-30T12:41:42;2.22;;;1.50;;
77518;SDS011;66629;47.346;19.038;2023-04-30T12:46:52;1.67;;;1.50;;
77518;SDS011;66629;47.346;19.038;2023-04-30T12:49:26;1.90;;;1.70;;
77518;SDS011;66629;47.346;19.038;2023-04-30T12:52:00;2.38;;;1.73;;
77518;SDS011;66629;47.346;19.038;2023-04-30T12:54:34;2.00;;;1.67;;
77518;SDS011;66629;47.346;19.038;2023-04-30T12:59:31;1.90;;;1.50;;
77518;SDS011;66629;47.346;19.038;2023-04-30T13:02:08;1.92;;;1.52;;
77518;SDS011;66629;47.346;19.038;2023-04-30T13:04:35;2.00;;;1.35;;
77518;SDS011;66629;47.346;19.038;2023-04-30T13:07:01;1.77;;;1.42;;
77518;SDS011;66629;47.346;19.038;2023-04-30T13:09:27;1.50;;;1.40;;
77518;SDS011;66629;47.346;19.038;2023-04-30T13:11:53;1.67;;;1.58;;
77518;SDS011;66629;47.346;19.038;2023-04-30T13:14:18;1.33;;;1.23;;
77518;SDS011;66629;47.346;19.038;2023-04-30T13:16:44;1.55;;;1.45;;
77518;SDS011;66629;47.346;19.038;2023-04-30T13:19:09;2.42;;;1.50;;
77518;SDS011;66629;47.346;19.038;2023-04-30T13:21:36;1.30;;;1.20;;
77518;SDS011;66629;47.346;19.038;2023-04-30T13:24:01;2.47;;;1.27;;
77518;SDS011;66629;47.346;19.038;2023-04-30T13:26:27;2.15;;;1.40;;
77518;SDS011;66629;47.346;19.038;2023-04-30T13:28:53;1.80;;;1.70;;
77518;SDS011;66629;47.346;19.038;2023-04-30T13:31:19;3.00;;;1.38;;
77518;SDS011;66629;47.346;19.038;2023-04-30T13:33:46;1.55;;;1.33;;
77518;SDS011;66629;47.346;19.038;2023-04-30T13:36:11;2.88;;;1.67;;
77518;SDS011;66629;47.346;19.038;2023-04-30T13:38:37;1.60;;;1.50;;
77518;SDS011;66629;47.346;19.038;2023-04-30T13:41:03;1.63;;;1.52;;
77518;SDS011;66629;47.346;19.038;2023-04-30T13:43:29;1.40;;;1.30;;
77518;SDS011;66629;47.346;19.038;2023-04-30T13:45:55;1.30;;;1.20;;
77518;SDS011;66629;47.346;19.038;2023-04-30T13:48:22;1.60;;;1.50;;
77518;SDS011;66629;47.346;19.038;2023-04-30T13:50:47;1.40;;;1.30;;
77518;SDS011;66629;47.346;19.038;2023-04-30T13:53:13;1.40;;;1.30;;
77518;SDS011;66629;47.346;19.038;2023-04-30T13:55:39;1.30;;;1.20;;
77518;SDS011;66629;47.346;19.038;2023-04-30T13:58:04;1.50;;;1.30;;
77518;SDS011;66629;47.346;19.038;2023-04-30T14:00:30;2.00;;;1.55;;
77518;SDS011;66629;47.346;19.038;2023-04-30T14:02:55;2.83;;;1.30;;
77518;SDS011;66629;47.346;19.038;2023-04-30T14:05:20;1.20;;;1.10;;
77518;SDS011;66629;47.346;19.038;2023-04-30T14:07:46;1.50;;;1.40;;
77518;SDS011;66629;47.346;19.038;2023-04-30T14:10:11;1.70;;;1.38;;
77518;SDS011;66629;47.346;19.038;2023-04-30T14:12:37;1.55;;;1.45;;
77518;SDS011;66629;47.346;19.038;2023-04-30T14:15:03;2.15;;;1.30;;
77518;SDS011;66629;47.346;19.038;2023-04-30T14:17:29;1.42;;;1.33;;
77518;SDS011;66629;47.346;19.038;2023-04-30T14:19:56;1.75;;;1.20;;
77518;SDS011;66629;47.346;19.038;2023-04-30T14:22:21;1.30;;;1.20;;
77518;SDS011;66629;47.346;19.038;2023-04-30T14:24:48;1.13;;;1.10;;
77518;SDS011;66629;47.346;19.038;2023-04-30T14:27:14;1.15;;;1.15;;
77518;SDS011;66629;47.346;19.038;2023-04-30T14:29:39;1.67;;;1.20;;
77518;SDS011;66629;47.346;19.038;2023-04-30T14:32:05;2.17;;;1.23;;
77518;SDS011;66629;47.346;19.038;2023-04-30T14:34:31;1.30;;;1.10;;
77518;SDS011;66629;47.346;19.038;2023-04-30T14:36:57;1.60;;;1.20;;
77518;SDS011;66629;47.346;19.038;2023-04-30T14:39:23;1.63;;;1.30;;
77518;SDS011;66629;47.346;19.038;2023-04-30T14:41:50;1.40;;;1.30;;
77518;SDS011;66629;47.346;19.038;2023-04-30T14:44:15;1.30;;;1.20;;
77518;SDS011;66629;47.346;19.038;2023-04-30T14:46:40;1.20;;;1.10;;
77518;SDS011;66629;47.346;19.038;2023-04-30T14:49:06;1.15;;;1.05;;
77518;SDS011;66629;47.346;19.038;2023-04-30T14:51:31;1.30;;;1.20;;
77518;SDS011;66629;47.346;19.038;2023-04-30T14:53:57;3.10;;;1.27;;
77518;SDS011;66629;47.346;19.038;2023-04-30T14:56:23;2.47;;;1.80;;
77518;SDS011;66629;47.346;19.038;2023-04-30T14:58:49;1.10;;;1.10;;